createdAt,value
2022-12-13T00:01:55.681Z,99285.66
2022-12-13T00:04:25.239Z,99283.06
2022-12-13T00:06:54.000Z,99276.19
2022-12-13T00:09:22.661Z,99276.28
2022-12-13T00:11:50.269Z,99270.97
2022-12-13T00:14:17.780Z,99278.78
2022-12-13T00:16:47.085Z,99273.56
2022-12-13T00:19:15.101Z,99277.09
2022-12-13T00:21:42.064Z,99270.13
2022-12-13T00:24:09.214Z,99273.66
2022-12-13T00:26:36.316Z,99265.13
2022-12-13T00:29:06.536Z,99264.19
2022-12-13T00:32:03.758Z,99261.69
2022-12-13T00:34:21.012Z,99260.06
2022-12-13T00:36:48.360Z,99261.81
2022-12-13T00:39:16.565Z,99260.06
2022-12-13T00:41:44.753Z,99261.00
2022-12-13T00:44:13.418Z,99259.34
2022-12-13T00:46:41.651Z,99255.88
2022-12-13T00:49:10.906Z,99257.66
2022-12-13T00:51:38.681Z,99264.78
2022-12-13T00:54:05.688Z,99252.69
2022-12-13T00:56:33.787Z,99258.97
2022-12-13T00:59:00.956Z,99257.28
2022-12-13T01:01:32.254Z,99254.81
2022-12-13T01:04:02.368Z,99250.66
2022-12-13T01:06:49.588Z,99250.78
2022-12-13T01:09:20.788Z,99241.28
2022-12-13T01:11:48.765Z,99243.19
2022-12-13T01:14:17.129Z,99244.13
2022-12-13T01:16:44.160Z,99251.25
2022-12-13T01:19:11.126Z,99245.22
2022-12-13T01:21:38.179Z,99251.47
2022-12-13T01:24:06.888Z,99255.03
2022-12-13T01:26:34.306Z,99254.31
2022-12-13T01:29:01.638Z,99248.38
2022-12-13T01:31:28.884Z,99255.47
2022-12-13T01:33:55.837Z,99254.66
2022-12-13T01:36:27.441Z,99253.13
2022-12-13T01:38:58.812Z,99248.84
2022-12-13T01:41:28.327Z,99242.91
2022-12-13T01:44:06.244Z,99237.00
2022-12-13T01:46:36.427Z,99243.97
2022-12-13T01:49:19.234Z,99232.00
2022-12-13T01:51:55.876Z,99226.06
2022-12-13T01:54:33.605Z,99227.97
2022-12-13T01:57:05.284Z,99225.50
2022-12-13T01:59:34.073Z,99236.13
2022-12-13T02:02:01.452Z,99232.81
2022-12-13T02:04:48.681Z,99221.78
2022-12-13T02:07:23.428Z,99213.25
2022-12-13T02:09:58.860Z,99218.47
2022-12-13T02:12:35.233Z,99219.53
2022-12-13T02:15:12.982Z,99204.72
2022-12-13T02:18:05.375Z,99206.59
2022-12-13T02:21:08.651Z,99206.50
2022-12-13T02:24:15.566Z,99203.06
2022-12-13T02:27:43.253Z,99201.38
2022-12-13T02:30:27.007Z,99197.88
2022-12-13T02:33:25.379Z,99195.97
2022-12-13T02:36:28.561Z,99204.72
2022-12-13T02:39:31.038Z,99197.50
2022-12-13T02:42:05.850Z,99200.22
2022-12-13T02:45:18.689Z,99194.91
2022-12-13T02:47:51.996Z,99206.16
2022-12-13T02:50:20.606Z,99196.56
2022-12-13T02:52:48.298Z,99196.34
2022-12-13T02:55:17.266Z,99197.16
2022-12-13T02:57:46.201Z,99198.81
2022-12-13T03:00:23.426Z,99199.66
2022-12-13T03:03:11.416Z,99200.47
2022-12-13T03:06:08.535Z,99200.47
2022-12-13T03:09:15.129Z,99196.84
2022-12-13T03:12:42.621Z,99201.09
2022-12-13T03:15:20.918Z,99200.28
2022-12-13T03:18:04.506Z,99199.31
2022-12-13T03:20:31.809Z,99189.72
2022-12-13T03:22:58.961Z,99188.06
2022-12-13T03:25:32.925Z,99179.44
2022-12-13T03:28:02.424Z,99185.47
2022-12-13T03:30:33.014Z,99176.69
2022-12-13T03:33:00.752Z,99187.25
2022-12-13T03:35:34.774Z,99174.31
2022-12-13T03:38:22.466Z,99179.53
2022-12-13T03:40:54.884Z,99184.84
2022-12-13T03:43:23.148Z,99179.66
2022-12-13T03:45:52.664Z,99173.72
2022-12-13T03:48:23.080Z,99163.31
2022-12-13T03:50:52.711Z,99172.06
2022-12-13T03:53:22.962Z,99180.09
2022-12-13T03:56:05.544Z,99183.66
2022-12-13T03:58:36.939Z,99176.78
2022-12-13T04:01:16.336Z,99187.34
2022-12-13T04:03:46.968Z,99187.44
2022-12-13T04:06:22.116Z,99190.06
2022-12-13T04:08:51.114Z,99185.75
2022-12-13T04:11:42.562Z,99177.94
2022-12-13T04:14:11.853Z,99165.19
2022-12-13T04:16:39.251Z,99171.34
2022-12-13T04:19:06.369Z,99172.28
2022-12-13T04:21:33.420Z,99168.13
2022-12-13T04:24:01.461Z,99167.28
2022-12-13T04:26:29.452Z,99176.03
2022-12-13T04:28:57.424Z,99164.81
2022-12-13T04:31:24.558Z,99164.81
2022-12-13T04:33:51.656Z,99161.38
2022-12-13T04:36:31.995Z,99155.47
2022-12-13T04:39:22.298Z,99158.88
2022-12-13T04:41:51.869Z,99157.13
2022-12-13T04:44:28.657Z,99164.19
2022-12-13T04:47:01.306Z,99158.97
2022-12-13T04:49:30.201Z,99160.66
2022-12-13T04:52:01.314Z,99157.31
2022-12-13T04:54:35.725Z,99146.09
2022-12-13T04:57:07.389Z,99151.16
2022-12-13T04:59:35.168Z,99154.72
2022-12-13T05:02:02.302Z,99150.47
2022-12-13T05:04:33.013Z,99143.34
2022-12-13T05:07:01.275Z,99146.09
2022-12-13T05:09:28.256Z,99150.47
2022-12-13T05:12:01.728Z,99145.25
2022-12-13T05:14:31.643Z,99140.75
2022-12-13T05:17:00.304Z,99144.19
2022-12-13T05:19:30.963Z,99139.84
2022-12-13T05:22:02.002Z,99148.47
2022-12-13T05:24:31.581Z,99145.75
2022-12-13T05:26:59.197Z,99143.97
2022-12-13T05:29:27.786Z,99134.38
2022-12-13T05:31:54.911Z,99139.59
2022-12-13T05:34:21.973Z,99138.66
2022-12-13T05:36:48.955Z,99131.66
2022-12-13T05:39:27.823Z,99125.63
2022-12-13T05:42:01.514Z,99119.47
2022-12-13T05:44:31.982Z,99124.59
2022-12-13T05:47:02.179Z,99127.19
2022-12-13T05:49:31.191Z,99120.28
2022-12-13T05:51:58.316Z,99123.72
2022-12-13T05:54:25.264Z,99134.06
2022-12-13T05:56:52.211Z,99136.75
2022-12-13T05:59:19.229Z,99131.53
2022-12-13T06:01:49.141Z,99133.94
2022-12-13T06:04:22.943Z,99130.50
2022-12-13T06:06:51.992Z,99136.66
2022-12-13T06:09:20.367Z,99129.78
2022-12-13T06:11:48.269Z,99128.00
2022-12-13T06:14:22.686Z,99130.63
2022-12-13T06:16:52.632Z,99134.13
2022-12-13T06:19:24.112Z,99143.72
2022-12-13T06:21:53.355Z,99148.84
2022-12-13T06:24:22.946Z,99148.09
2022-12-13T06:26:50.850Z,99145.50
2022-12-13T06:29:23.625Z,99147.28
2022-12-13T06:32:02.136Z,99143.84
2022-12-13T06:34:33.780Z,99140.53
2022-12-13T06:37:02.978Z,99144.94
2022-12-13T06:39:33.026Z,99151.09
2022-12-13T06:42:13.703Z,99144.19
2022-12-13T06:44:51.715Z,99141.59
2022-12-13T06:47:32.163Z,99152.13
2022-12-13T06:50:05.496Z,99146.09
2022-12-13T06:52:33.109Z,99146.22
2022-12-13T06:55:00.218Z,99148.69
2022-12-13T06:57:27.213Z,99150.47
2022-12-13T06:59:54.154Z,99153.06
2022-12-13T07:02:25.856Z,99150.72
2022-12-13T07:04:54.163Z,99148.09
2022-12-13T07:07:21.210Z,99145.50
2022-12-13T07:09:48.199Z,99147.16
2022-12-13T07:12:15.191Z,99144.75
2022-12-13T07:14:42.446Z,99143.00
2022-12-13T07:17:10.701Z,99153.53
2022-12-13T07:19:38.113Z,99158.72
2022-12-13T07:22:05.859Z,99165.72
2022-12-13T07:24:34.941Z,99176.25
2022-12-13T07:27:03.408Z,99176.25
2022-12-13T07:29:30.408Z,99182.28
2022-12-13T07:32:00.874Z,99185.72
2022-12-13T07:34:29.793Z,99184.88
2022-12-13T07:36:56.721Z,99191.75
2022-12-13T07:39:26.112Z,99190.09
2022-12-13T07:41:55.946Z,99196.13
2022-12-13T07:44:27.094Z,99201.34
2022-12-13T07:46:54.013Z,99202.16
2022-12-13T07:49:20.938Z,99206.53
2022-12-13T07:51:48.017Z,99202.16
2022-12-13T07:54:15.119Z,99197.78
2022-12-13T07:56:42.189Z,99202.03
2022-12-13T07:59:10.685Z,99206.31
2022-12-13T08:01:37.907Z,99208.81
2022-12-13T08:04:05.411Z,99206.09
2022-12-13T08:06:37.921Z,99204.19
2022-12-13T08:09:05.845Z,99200.63
2022-12-13T08:11:33.070Z,99181.50
2022-12-13T08:14:00.041Z,99184.69
2022-12-13T08:16:29.474Z,99176.53
2022-12-13T08:19:01.737Z,99170.13
2022-12-13T08:21:57.134Z,99170.63
2022-12-13T08:24:27.490Z,99187.34
2022-12-13T08:27:01.240Z,99202.50
2022-12-13T08:29:33.323Z,99200.28
2022-12-13T08:32:12.902Z,99197.94
2022-12-13T08:34:41.162Z,99188.91
2022-12-13T08:37:08.352Z,99182.28
2022-12-13T08:39:37.719Z,99193.19
2022-12-13T08:42:25.160Z,99183.25
2022-12-13T08:44:53.595Z,99182.78
2022-12-13T08:47:25.966Z,99192.75
2022-12-13T08:50:03.944Z,99204.34
2022-12-13T08:52:39.197Z,99199.50
2022-12-13T08:55:12.783Z,99206.94
2022-12-13T08:57:42.680Z,99199.59
2022-12-13T09:00:14.913Z,99192.38
2022-12-13T09:02:42.318Z,99187.72
2022-12-13T09:05:11.258Z,99189.28
2022-12-13T09:07:41.957Z,99190.13
2022-12-13T09:10:26.283Z,99196.72
2022-12-13T09:13:02.373Z,99195.78
2022-12-13T09:15:33.726Z,99193.91
2022-12-13T09:18:05.052Z,99198.16
2022-12-13T09:20:40.817Z,99206.69
2022-12-13T09:23:14.324Z,99199.56
2022-12-13T09:26:05.705Z,99196.03
2022-12-13T09:28:35.211Z,99193.16
2022-12-13T09:31:14.352Z,99204.19
2022-12-13T09:33:42.138Z,99208.34
2022-12-13T09:36:13.832Z,99210.69
2022-12-13T09:38:41.015Z,99205.25
2022-12-13T09:41:41.033Z,99199.75
2022-12-13T09:44:32.168Z,99209.97
2022-12-13T09:47:13.863Z,99209.72
2022-12-13T09:49:52.848Z,99204.25
2022-12-13T09:52:25.003Z,99204.00
2022-12-13T09:54:57.445Z,99199.38
2022-12-13T09:57:33.922Z,99189.50
2022-12-13T10:00:13.365Z,99187.63
2022-12-13T10:02:57.034Z,99180.22
2022-12-13T10:05:39.604Z,99181.63
2022-12-13T10:08:25.262Z,99186.59
2022-12-13T10:10:55.816Z,99198.47
2022-12-13T10:13:44.545Z,99186.09
2022-12-13T10:16:28.378Z,99186.44
2022-12-13T10:19:29.408Z,99173.69
2022-12-13T10:22:01.710Z,99176.06
2022-12-13T10:24:55.261Z,99169.63
2022-12-13T10:27:37.428Z,99176.38
2022-12-13T10:30:11.810Z,99176.94
2022-12-13T10:32:59.915Z,99168.88
2022-12-13T10:35:36.772Z,99161.72
2022-12-13T10:38:31.738Z,99166.69
2022-12-13T10:41:01.077Z,99159.81
2022-12-13T10:43:30.453Z,99167.13
2022-12-13T10:46:01.228Z,99162.72
2022-12-13T10:48:51.418Z,99158.09
2022-12-13T10:51:22.055Z,99151.63
2022-12-13T10:53:57.216Z,99145.06
2022-12-13T10:56:44.605Z,99147.44
2022-12-13T10:59:37.732Z,99138.25
2022-12-13T11:02:39.705Z,99143.66
2022-12-13T11:05:34.009Z,99134.56
2022-12-13T11:08:21.942Z,99134.03
2022-12-13T11:11:04.896Z,99141.50
2022-12-13T11:13:46.386Z,99120.88
2022-12-13T11:16:22.595Z,99111.00
2022-12-13T11:18:57.021Z,99115.94
2022-12-13T11:21:28.734Z,99114.16
2022-12-13T11:24:07.976Z,99113.19
2022-12-13T11:26:39.013Z,99114.84
2022-12-13T11:29:29.879Z,99119.38
2022-12-13T11:32:47.798Z,99108.66
2022-12-13T11:35:54.745Z,99107.69
2022-12-13T11:39:01.292Z,99105.47
2022-12-13T11:41:58.517Z,99109.34
2022-12-13T11:44:51.966Z,99112.94
2022-12-13T11:47:45.496Z,99110.03
2022-12-13T11:50:33.202Z,99099.56
2022-12-13T11:53:28.132Z,99093.81
2022-12-13T11:56:30.546Z,99092.59
2022-12-13T11:59:23.882Z,99093.28
2022-12-13T12:02:06.793Z,99091.63
2022-12-13T12:04:53.696Z,99088.72
2022-12-13T12:07:33.874Z,99090.38
2022-12-13T12:10:30.641Z,99092.31
2022-12-13T12:13:22.400Z,99104.03
2022-12-13T12:16:11.726Z,99091.22
2022-12-13T12:18:38.761Z,99085.69
2022-12-13T12:22:12.081Z,99085.84
2022-12-13T12:24:53.357Z,99089.56
2022-12-13T12:27:50.385Z,99089.28
2022-12-13T12:30:27.884Z,99092.44
2022-12-13T12:33:45.901Z,99088.84
2022-12-13T12:36:49.303Z,99087.63
2022-12-13T12:39:26.963Z,99085.69
2022-12-13T12:43:11.873Z,99085.59
2022-12-13T12:46:03.189Z,99095.91
2022-12-13T12:49:18.916Z,99082.00
2022-12-13T12:52:42.485Z,99074.84
2022-12-13T12:55:45.805Z,99062.97
2022-12-13T12:58:26.802Z,99055.97
2022-12-13T13:01:26.316Z,99062.84
2022-12-13T13:04:01.523Z,99061.06
2022-12-13T13:06:49.856Z,99059.28
2022-12-13T13:09:24.634Z,99069.88
2022-12-13T13:11:57.718Z,99065.47
2022-12-13T13:14:27.810Z,99062.56
2022-12-13T13:16:55.740Z,99064.50
2022-12-13T13:19:31.444Z,99065.34
2022-12-13T13:22:01.996Z,99056.78
2022-12-13T13:24:34.574Z,99055.13
2022-12-13T13:27:10.507Z,99053.22
2022-12-13T13:29:43.376Z,99051.28
2022-12-13T13:32:11.067Z,99059.13
2022-12-13T13:34:49.348Z,99066.16
2022-12-13T13:37:23.276Z,99067.25
2022-12-13T13:40:12.495Z,99068.06
2022-12-13T13:43:05.426Z,99064.09
2022-12-13T13:46:01.810Z,99065.88
2022-12-13T13:49:00.466Z,99058.97
2022-12-13T13:55:20.576Z,99065.06
2022-12-13T13:58:34.246Z,99059.09
2022-12-13T14:02:08.701Z,99069.56
2022-12-13T14:05:05.006Z,99064.47
2022-12-13T14:08:20.303Z,99063.91
2022-12-13T14:11:52.640Z,99058.13
2022-12-13T14:15:01.376Z,99059.25
2022-12-13T14:18:11.812Z,99059.38
2022-12-13T14:21:21.988Z,99062.25
2022-12-13T14:24:16.616Z,99063.47
2022-12-13T14:27:09.086Z,99060.19
2022-12-13T14:29:48.874Z,99054.25
2022-12-13T14:32:29.241Z,99051.91
2022-12-13T14:34:57.039Z,99046.00
2022-12-13T14:37:37.655Z,99049.81
2022-12-13T14:40:28.968Z,99052.97
2022-12-13T14:42:55.995Z,99049.81
2022-12-13T14:45:33.063Z,99054.75
2022-12-13T14:48:05.217Z,99054.75
2022-12-13T14:50:35.336Z,99044.53
2022-12-13T14:53:04.844Z,99044.13
2022-12-13T14:55:36.348Z,99040.78
2022-12-13T14:58:17.162Z,99044.53
2022-12-13T15:00:45.869Z,99038.72
2022-12-13T15:03:27.129Z,99028.53
2022-12-13T15:06:02.687Z,99032.34
2022-12-13T15:08:37.679Z,99023.97
2022-12-13T15:11:09.904Z,99015.56
2022-12-13T15:13:48.212Z,99015.84
2022-12-13T15:16:26.348Z,99009.06
2022-12-13T15:19:31.009Z,99003.44
2022-12-13T15:22:07.621Z,98994.06
2022-12-13T15:24:48.605Z,98986.50
2022-12-13T15:27:49.898Z,98984.41
2022-12-13T15:30:16.935Z,98976.81
2022-12-13T15:33:26.355Z,98973.78
2022-12-13T15:36:27.830Z,98978.28
2022-12-13T15:38:57.331Z,98977.59
2022-12-13T15:41:31.983Z,98976.09
2022-12-13T15:44:14.921Z,98959.03
2022-12-13T15:46:47.321Z,98956.53
2022-12-13T15:49:38.564Z,98951.56
2022-12-13T15:52:16.360Z,98945.78
2022-12-13T15:54:59.399Z,98940.00
2022-12-13T15:57:30.361Z,98951.53
2022-12-13T16:00:17.733Z,98941.22
2022-12-13T16:03:09.081Z,98942.44
2022-12-13T16:05:42.325Z,98947.94
2022-12-13T16:08:32.557Z,98942.00
2022-12-13T16:11:00.119Z,98939.66
2022-12-13T16:13:33.756Z,98925.91
2022-12-13T16:16:27.329Z,98919.16
2022-12-13T16:19:00.227Z,98924.66
2022-12-13T16:21:28.744Z,98918.72
2022-12-13T16:23:55.732Z,98910.19
2022-12-13T16:26:28.212Z,98923.50
2022-12-13T16:29:00.104Z,98931.34
2022-12-13T16:31:35.196Z,98914.97
2022-12-13T16:34:03.919Z,98919.50
2022-12-13T16:36:31.224Z,98910.97
2022-12-13T16:38:58.156Z,98910.16
2022-12-13T16:41:25.585Z,98913.72
2022-12-13T16:44:01.478Z,98918.94
2022-12-13T16:47:11.689Z,98924.16
2022-12-13T16:49:22.208Z,98917.25
2022-12-13T16:51:49.502Z,98920.81
2022-12-13T16:54:18.813Z,98923.44
2022-12-13T16:56:46.221Z,98922.47
2022-12-13T16:59:19.377Z,98935.53
2022-12-13T17:01:46.960Z,98934.59
2022-12-13T17:04:20.659Z,98948.47
2022-12-13T17:06:50.462Z,98941.47
2022-12-13T17:09:19.053Z,98935.41
2022-12-13T17:11:46.175Z,98948.34
2022-12-13T17:14:13.129Z,98943.94
2022-12-13T17:16:40.362Z,98923.88
2022-12-13T17:19:07.354Z,98916.06
2022-12-13T17:21:35.095Z,98909.88
2022-12-13T17:24:02.973Z,98919.34
2022-12-13T17:26:30.098Z,98907.97
2022-12-13T17:28:57.029Z,98902.75
2022-12-13T17:31:24.120Z,98894.91
2022-12-13T17:33:52.292Z,98887.09
2022-12-13T17:36:19.279Z,98883.53
2022-12-13T17:38:47.762Z,98885.19
2022-12-13T17:41:15.847Z,98894.91
2022-12-13T17:43:43.798Z,98892.19
2022-12-13T17:46:18.410Z,98886.97
2022-12-13T17:48:45.615Z,98880.78
2022-12-13T17:51:13.997Z,98886.97
2022-12-13T17:53:43.451Z,98885.19
2022-12-13T17:56:15.660Z,98906.06
2022-12-13T17:58:43.743Z,98893.03
2022-12-13T18:01:14.760Z,98892.06
2022-12-13T18:03:41.753Z,98886.84
2022-12-13T18:06:09.220Z,98888.50
2022-12-13T18:08:38.885Z,98883.25
2022-12-13T18:11:31.707Z,98883.25
2022-12-13T18:13:55.908Z,98878.06
2022-12-13T18:16:30.383Z,98876.13
2022-12-13T18:19:03.542Z,98873.50
2022-12-13T18:21:30.480Z,98850.03
2022-12-13T18:23:59.462Z,98874.22
2022-12-13T18:26:26.693Z,98869.00
2022-12-13T18:28:54.065Z,98872.44
2022-12-13T18:31:24.043Z,98877.53
2022-12-13T18:33:53.839Z,98862.69
2022-12-13T18:36:24.728Z,98867.09
2022-12-13T18:38:51.925Z,98854.03
2022-12-13T18:41:23.074Z,98857.34
2022-12-13T18:43:55.661Z,98846.91
2022-12-13T18:46:23.125Z,98832.19
2022-12-13T18:48:50.143Z,98827.81
2022-12-13T18:51:18.315Z,98838.09
2022-12-13T18:53:45.347Z,98832.88
2022-12-13T18:56:18.789Z,98816.53
2022-12-13T18:58:48.790Z,98819.81
2022-12-13T19:01:17.408Z,98832.88
2022-12-13T19:03:49.196Z,98822.56
2022-12-13T19:06:22.842Z,98825.06
2022-12-13T19:08:54.459Z,98834.66
2022-12-13T19:11:22.761Z,98825.19
2022-12-13T19:13:50.171Z,98835.50
2022-12-13T19:16:21.220Z,98821.75
2022-12-13T19:18:48.593Z,98822.56
2022-12-13T19:21:19.003Z,98828.75
2022-12-13T19:23:51.259Z,98809.38
2022-12-13T19:26:22.714Z,98805.13
2022-12-13T19:28:50.696Z,98816.53
2022-12-13T19:31:17.703Z,98815.56
2022-12-13T19:33:44.732Z,98810.34
2022-12-13T19:36:12.148Z,98810.25
2022-12-13T19:38:40.805Z,98821.50
2022-12-13T19:41:14.358Z,98821.50
2022-12-13T19:43:45.467Z,98821.50
2022-12-13T19:46:18.524Z,98809.28
2022-12-13T19:48:45.632Z,98794.44
2022-12-13T19:51:12.581Z,98793.47
2022-12-13T19:53:39.867Z,98785.78
2022-12-13T19:56:17.674Z,98784.97
2022-12-13T19:58:46.619Z,98776.16
2022-12-13T20:01:14.341Z,98784.97
2022-12-13T20:03:45.543Z,98770.94
2022-12-13T20:06:15.881Z,98758.72
2022-12-13T20:08:43.419Z,98756.13
2022-12-13T20:11:19.433Z,98748.44
2022-12-13T20:13:48.642Z,98756.13
2022-12-13T20:16:19.531Z,98768.34
2022-12-13T20:18:47.364Z,98756.13
2022-12-13T20:21:21.141Z,98763.13
2022-12-13T20:23:48.897Z,98745.66
2022-12-13T20:26:20.822Z,98745.66
2022-12-13T20:28:48.933Z,98743.19
2022-12-13T20:31:25.298Z,98745.66
2022-12-13T20:34:04.257Z,98744.84
2022-12-13T20:36:31.455Z,98750.06
2022-12-13T20:39:05.691Z,98758.59
2022-12-13T20:41:35.936Z,98736.06
2022-12-13T20:44:06.105Z,98743.75
2022-12-13T20:46:33.883Z,98738.53
2022-12-13T20:49:03.911Z,98728.09
2022-12-13T20:51:33.143Z,98721.06
2022-12-13T20:54:00.675Z,98724.66
2022-12-13T20:56:35.088Z,98722.72
2022-12-13T20:59:07.930Z,98716.53
2022-12-13T21:01:38.521Z,98718.22
2022-12-13T21:04:09.412Z,98715.59
2022-12-13T21:06:40.582Z,98722.47
2022-12-13T21:09:09.288Z,98719.84
2022-12-13T21:11:43.094Z,98715.59
2022-12-13T21:14:22.214Z,98710.22
2022-12-13T21:16:59.007Z,98704.19
2022-12-13T21:19:38.935Z,98705.97
2022-12-13T21:22:07.558Z,98688.53
2022-12-13T21:24:34.657Z,98698.00
2022-12-13T21:27:01.666Z,98701.28
2022-12-13T21:29:28.703Z,98687.41
2022-12-13T21:31:56.072Z,98692.63
2022-12-13T21:34:23.573Z,98688.25
2022-12-13T21:36:52.485Z,98696.06
2022-12-13T21:39:27.602Z,98680.28
2022-12-13T21:41:55.097Z,98681.13
2022-12-13T21:44:22.203Z,98683.72
2022-12-13T21:49:36.381Z,98661.88
2022-12-13T21:52:03.428Z,98655.69
2022-12-13T21:54:30.412Z,98641.66
2022-12-13T21:57:16.173Z,98634.66
2022-12-13T21:59:43.133Z,98643.31
2022-12-13T22:02:17.794Z,98635.47
2022-12-13T22:04:54.831Z,98619.66
2022-12-13T22:07:28.150Z,98629.28
2022-12-13T22:09:56.581Z,98618.75
2022-12-13T22:12:29.605Z,98612.66
2022-12-13T22:14:56.564Z,98610.06
2022-12-13T22:17:31.257Z,98609.94
2022-12-13T22:20:00.743Z,98608.28
2022-12-13T22:22:27.979Z,98600.47
2022-12-13T22:24:54.927Z,98597.56
2022-12-13T22:27:23.599Z,98593.16
2022-12-13T22:29:59.594Z,98570.63
2022-12-13T22:32:29.614Z,98569.66
2022-12-13T22:34:56.810Z,98563.47
2022-12-13T22:37:24.717Z,98566.06
2022-12-13T22:39:51.714Z,98583.38
2022-12-13T22:42:19.406Z,98575.56
2022-12-13T22:44:46.325Z,98577.22
2022-12-13T22:47:13.269Z,98580.78
2022-12-13T22:49:40.240Z,98581.47
2022-12-13T22:52:08.738Z,98573.66
2022-12-13T22:54:35.800Z,98575.28
2022-12-13T22:57:02.826Z,98582.16
2022-12-13T22:59:29.928Z,98579.53
2022-12-13T23:02:02.041Z,98595.06
2022-12-13T23:04:32.637Z,98591.63
2022-12-13T23:06:59.668Z,98575.00
2022-12-13T23:09:26.658Z,98579.25
2022-12-13T23:12:11.818Z,98573.09
2022-12-13T23:14:38.866Z,98581.84
2022-12-13T23:17:06.120Z,98578.31
2022-12-13T23:19:51.517Z,98573.09
2022-12-13T23:22:25.478Z,98566.91
2022-12-13T23:24:53.499Z,98560.69
2022-12-13T23:27:23.021Z,98555.34
2022-12-13T23:29:50.184Z,98556.31
2022-12-13T23:32:17.509Z,98540.47
2022-12-13T23:34:44.443Z,98521.53
2022-12-13T23:37:11.493Z,98533.63
2022-12-13T23:39:38.696Z,98533.47
2022-12-13T23:42:05.662Z,98527.44
2022-12-13T23:44:32.632Z,98540.47
2022-12-13T23:46:59.565Z,98544.75
2022-12-13T23:49:26.503Z,98538.56
2022-12-13T23:51:54.111Z,98539.50
2022-12-13T23:54:21.152Z,98541.19
2022-12-13T23:56:48.207Z,98546.41
2022-12-13T23:59:16.437Z,98542.94
